Time;durP1;ratioP1;P1;durP2;ratioP2;P2;SDS_P1;SDS_P2;PMS_P1;PMS_P2;Temp;Humidity;BMP_temperature;BMP_pressure;BME280_temperature;BME280_humidity;BME280_pressure;Samples;Min_cycle;Max_cycle;Signal;HPM_P1;HPM_P2
2023/12/18 00:01:10;;;;;;;18.15;8.73;;;;;;;1.78;100.00;102937.13;10515759;28;20124;-80
2023/12/18 00:06:11;;;;;;;16.95;9.20;;;;;;;1.74;100.00;102951.34;10463429;28;20056;-80
2023/12/18 00:11:11;;;;;;;17.23;8.35;;;;;;;1.68;100.00;102953.22;10464477;28;20045;-80
2023/12/18 00:16:12;;;;;;;15.40;8.60;;;;;;;1.65;100.00;102942.53;10452952;28;20103;-81
2023/12/18 00:21:13;;;;;;;17.88;8.38;;;;;;;1.83;100.00;102931.75;10483190;28;20032;-81
2023/12/18 00:26:14;;;;;;;15.52;8.00;;;;;;;1.94;100.00;102932.09;10468374;28;20857;-81
2023/12/18 00:31:14;;;;;;;21.17;9.45;;;;;;;2.11;100.00;102929.78;10480975;28;20124;-81
2023/12/18 00:36:15;;;;;;;27.13;9.05;;;;;;;2.04;100.00;102928.13;10481636;28;20115;-81
2023/12/18 00:41:17;;;;;;;15.80;7.55;;;;;;;2.04;100.00;102925.56;10479382;28;20124;-82
2023/12/18 00:46:18;;;;;;;10.63;6.60;;;;;;;2.13;100.00;102910.22;10482034;28;20048;-81
2023/12/18 00:51:18;;;;;;;16.98;7.28;;;;;;;2.06;100.00;102920.59;10456646;28;20550;-81
2023/12/18 00:56:19;;;;;;;28.63;10.50;;;;;;;1.98;100.00;102916.19;10496838;28;20121;-81
2023/12/18 01:01:19;;;;;;;15.10;10.73;;;;;;;1.88;100.00;102916.78;10473115;28;20040;-81
2023/12/18 01:06:20;;;;;;;18.73;8.25;;;;;;;1.71;100.00;102914.84;10464808;28;20506;-82
2023/12/18 01:11:20;;;;;;;15.60;8.82;;;;;;;1.71;100.00;102910.59;10481744;28;20051;-83
2023/12/18 01:16:21;;;;;;;29.08;10.02;;;;;;;1.68;100.00;102907.66;10466687;28;20122;-81
2023/12/18 01:21:21;;;;;;;12.30;7.78;;;;;;;1.61;100.00;102920.56;10473749;28;20527;-80
2023/12/18 01:26:22;;;;;;;18.05;8.23;;;;;;;1.50;100.00;102920.97;10486468;28;20037;-81
2023/12/18 01:31:23;;;;;;;13.30;8.00;;;;;;;1.52;100.00;102935.00;10488603;28;20033;-82
2023/12/18 01:36:24;;;;;;;14.18;8.63;;;;;;;1.40;100.00;102945.72;10474400;28;20107;-82
2023/12/18 01:41:24;;;;;;;18.15;8.50;;;;;;;1.41;100.00;102952.72;10456364;28;20048;-82
2023/12/18 01:46:25;;;;;;;16.58;8.43;;;;;;;1.44;100.00;102953.06;10472581;28;20046;-80
2023/12/18 01:51:25;;;;;;;19.35;11.45;;;;;;;1.52;100.00;102960.78;10488304;28;20040;-81
2023/12/18 01:56:27;;;;;;;16.27;9.23;;;;;;;1.58;100.00;102961.53;10488829;28;20045;-81
2023/12/18 02:01:30;;;;;;;;;;;;;;;1.66;100.00;102950.44;10469841;28;20047;-81
2023/12/18 02:06:31;;;;;;;17.50;8.90;;;;;;;1.79;100.00;102959.63;10469781;28;19927;-80
2023/12/18 02:11:31;;;;;;;16.83;9.90;;;;;;;1.88;100.00;102955.53;10453525;28;20144;-80
2023/12/18 02:16:32;;;;;;;17.88;10.50;;;;;;;2.02;100.00;102951.97;10492575;28;20064;-81
2023/12/18 02:21:33;;;;;;;19.75;9.00;;;;;;;2.18;100.00;102944.31;10486320;28;20132;-80
2023/12/18 02:26:33;;;;;;;15.82;9.68;;;;;;;2.26;100.00;102940.03;10487318;28;20433;-80
2023/12/18 02:31:35;;;;;;;21.55;8.90;;;;;;;2.31;100.00;102937.22;10443466;28;20123;-80
2023/12/18 02:36:36;;;;;;;;;;;;;;;2.38;100.00;102940.50;10461697;28;20098;-81
2023/12/18 02:41:36;;;;;;;19.15;10.50;;;;;;;2.43;100.00;102931.59;10481718;28;19924;-82
2023/12/18 02:46:37;;;;;;;17.10;9.18;;;;;;;2.54;100.00;102919.91;10474038;28;20119;-81
2023/12/18 02:51:37;;;;;;;28.92;14.43;;;;;;;2.64;100.00;102931.44;10516905;28;20049;-81
2023/12/18 02:56:38;;;;;;;20.48;10.88;;;;;;;2.66;100.00;102941.06;10484576;28;20124;-81
2023/12/18 03:01:38;;;;;;;25.88;12.02;;;;;;;2.67;100.00;102928.31;10466920;28;20044;-81
2023/12/18 03:06:39;;;;;;;21.17;12.65;;;;;;;2.72;100.00;102944.31;10470853;28;20041;-81
2023/12/18 03:11:43;;;;;;;24.13;12.93;;;;;;;2.75;100.00;102926.56;10454397;28;20071;-80
2023/12/18 03:16:43;;;;;;;26.73;14.57;;;;;;;2.85;100.00;102923.38;10488776;28;20040;-80
2023/12/18 03:21:47;;;;;;;28.63;13.82;;;;;;;2.87;100.00;102921.88;10471397;28;20123;-80
2023/12/18 03:26:47;;;;;;;23.98;14.25;;;;;;;2.92;100.00;102912.97;10468093;28;20036;-80
2023/12/18 03:31:48;;;;;;;21.83;11.63;;;;;;;2.97;100.00;102900.53;10476800;28;20043;-80
2023/12/18 03:36:48;;;;;;;26.30;15.77;;;;;;;2.96;100.00;102889.28;10483196;28;20038;-80
2023/12/18 03:41:49;;;;;;;33.90;15.52;;;;;;;3.02;100.00;102904.53;10464943;28;20137;-79
2023/12/18 03:46:50;;;;;;;21.25;12.80;;;;;;;2.98;100.00;102882.59;10460413;28;20550;-80
2023/12/18 03:51:52;;;;;;;27.92;17.10;;;;;;;3.07;100.00;102891.38;10460381;28;20115;-81
2023/12/18 03:56:52;;;;;;;;;;;;;;;3.08;100.00;102880.28;10464513;28;20029;-81
2023/12/18 04:01:53;;;;;;;26.50;14.20;;;;;;;3.02;100.00;102870.91;10482238;28;20370;-81
2023/12/18 04:06:53;;;;;;;32.40;16.50;;;;;;;3.00;100.00;102878.50;10480922;28;20132;-81
2023/12/18 04:11:54;;;;;;;30.98;14.70;;;;;;;2.98;100.00;102885.19;10480856;28;20127;-81
2023/12/18 04:16:54;;;;;;;27.98;16.50;;;;;;;3.00;100.00;102867.22;10483448;28;20539;-82
2023/12/18 04:21:55;;;;;;;32.13;17.40;;;;;;;3.03;100.00;102875.31;10478775;28;20060;-81
2023/12/18 04:26:55;;;;;;;31.17;14.52;;;;;;;3.01;100.00;102890.69;10481664;28;20039;-81
2023/12/18 04:31:56;;;;;;;34.70;17.33;;;;;;;3.07;100.00;102896.56;10477318;28;20476;-81
2023/12/18 04:36:56;;;;;;;28.77;17.77;;;;;;;3.05;100.00;102912.63;10488865;28;20135;-81
2023/12/18 04:41:57;;;;;;;31.67;16.33;;;;;;;3.00;100.00;102921.56;10463985;28;20128;-81
2023/12/18 04:46:57;;;;;;;29.90;17.15;;;;;;;3.03;100.00;102901.19;10463273;28;20121;-81
2023/12/18 04:51:58;;;;;;;32.95;16.15;;;;;;;3.08;100.00;102893.22;10440700;28;20047;-81
2023/12/18 04:56:58;;;;;;;30.58;17.13;;;;;;;3.03;100.00;102898.63;10442068;28;20064;-80
2023/12/18 05:01:59;;;;;;;38.33;18.83;;;;;;;3.02;100.00;102884.78;10485305;28;20032;-80
2023/12/18 05:06:59;;;;;;;30.27;17.98;;;;;;;3.01;100.00;102884.59;10487046;28;20068;-81
2023/12/18 05:12:00;;;;;;;32.03;18.40;;;;;;;2.99;100.00;102886.09;10471504;28;20072;-81
2023/12/18 05:17:00;;;;;;;35.65;16.52;;;;;;;3.06;100.00;102896.38;10461299;28;20048;-79
2023/12/18 05:22:01;;;;;;;40.25;22.90;;;;;;;3.02;100.00;102894.19;10442956;28;20124;-80
2023/12/18 05:27:01;;;;;;;35.00;17.73;;;;;;;3.00;100.00;102900.84;10440857;28;20129;-80
2023/12/18 05:32:02;;;;;;;35.08;19.88;;;;;;;2.99;100.00;102891.25;10467694;28;20044;-80
2023/12/18 05:37:03;;;;;;;38.72;19.00;;;;;;;2.98;100.00;102889.41;10482726;28;20089;-79
2023/12/18 05:42:04;;;;;;;40.33;17.55;;;;;;;2.96;100.00;102889.28;10487512;28;20536;-80
2023/12/18 05:47:04;;;;;;;31.73;17.63;;;;;;;2.95;100.00;102892.59;10482679;28;20029;-80
2023/12/18 05:52:05;;;;;;;33.35;16.38;;;;;;;2.99;100.00;102899.03;10482446;28;20039;-79
2023/12/18 05:57:06;;;;;;;32.77;19.37;;;;;;;2.98;100.00;102897.19;10468418;28;20040;-80
2023/12/18 06:02:06;;;;;;;32.22;18.92;;;;;;;3.01;100.00;102905.28;10467068;28;20131;-80
2023/12/18 06:07:08;;;;;;;33.65;18.17;;;;;;;2.99;100.00;102892.19;10457974;28;20130;-80
2023/12/18 06:12:08;;;;;;;39.25;22.08;;;;;;;3.06;100.00;102904.13;10484630;28;20431;-79
2023/12/18 06:17:09;;;;;;;32.88;17.10;;;;;;;3.04;100.00;102913.38;10446006;28;20131;-79
2023/12/18 06:22:10;;;;;;;35.03;21.58;;;;;;;3.01;100.00;102907.88;10460805;28;20029;-80
2023/12/18 06:27:11;;;;;;;31.90;15.90;;;;;;;2.98;100.00;102910.13;10483893;28;20048;-80
2023/12/18 06:32:12;;;;;;;43.13;19.40;;;;;;;2.99;100.00;102906.78;10453804;28;20044;-82
2023/12/18 06:37:13;;;;;;;32.42;18.85;;;;;;;2.98;100.00;102892.94;10484072;28;20056;-78
2023/12/18 06:42:13;;;;;;;40.92;18.77;;;;;;;2.91;100.00;102896.50;10471843;28;20124;-78
2023/12/18 06:47:14;;;;;;;33.58;20.73;;;;;;;2.91;100.00;102911.13;10468392;28;20128;-80
2023/12/18 06:52:14;;;;;;;38.78;20.35;;;;;;;2.92;100.00;102913.84;10485386;28;20535;-80
2023/12/18 06:57:16;;;;;;;41.45;21.55;;;;;;;2.94;100.00;102909.78;10468900;28;20064;-81
2023/12/18 07:02:16;;;;;;;35.47;20.67;;;;;;;2.94;100.00;102914.06;10494686;28;20064;-81
2023/12/18 07:07:18;;;;;;;40.55;23.67;;;;;;;2.98;100.00;102925.63;10506135;28;20040;-81
2023/12/18 07:12:18;;;;;;;37.92;22.67;;;;;;;2.95;100.00;102918.47;10509921;28;20636;-80
2023/12/18 07:17:19;;;;;;;42.03;20.27;;;;;;;2.93;100.00;102917.38;10492962;28;20131;-83
2023/12/18 07:22:19;;;;;;;45.08;20.58;;;;;;;2.96;100.00;102907.38;10485546;28;20210;-80
2023/12/18 07:27:20;;;;;;;44.20;20.30;;;;;;;2.94;100.00;102902.00;10478817;28;20128;-79
2023/12/18 07:32:21;;;;;;;40.67;20.23;;;;;;;2.94;100.00;102899.44;10480894;28;20067;-80
2023/12/18 07:37:21;;;;;;;41.42;18.33;;;;;;;2.91;100.00;102898.19;10460569;28;20787;-80
2023/12/18 07:42:22;;;;;;;41.30;22.58;;;;;;;2.90;100.00;102905.00;10474725;28;20052;-81
2023/12/18 07:47:23;;;;;;;33.08;19.83;;;;;;;2.92;100.00;102911.28;10480541;28;20063;-81
2023/12/18 07:52:23;;;;;;;33.58;20.92;;;;;;;2.90;100.00;102923.13;10482045;28;20548;-80
2023/12/18 07:57:24;;;;;;;28.38;17.35;;;;;;;2.88;100.00;102929.78;10463882;28;20127;-81
2023/12/18 08:02:24;;;;;;;25.30;18.77;;;;;;;2.91;100.00;102931.81;10474565;28;20045;-81
2023/12/18 08:07:25;;;;;;;24.70;17.02;;;;;;;2.87;100.00;102927.94;10473119;28;20560;-80
2023/12/18 08:12:25;;;;;;;35.70;19.55;;;;;;;2.83;100.00;102930.03;10480267;28;20471;-80
2023/12/18 08:17:26;;;;;;;23.15;17.98;;;;;;;2.85;100.00;102925.94;10438532;28;20072;-79
2023/12/18 08:22:26;;;;;;;30.30;17.77;;;;;;;2.88;100.00;102929.78;10439733;28;20480;-80
2023/12/18 08:27:32;;;;;;;28.17;19.60;;;;;;;2.92;100.00;102928.47;10445971;28;20127;-78
2023/12/18 08:32:32;;;;;;;31.20;18.10;;;;;;;2.94;100.00;102921.81;10504618;28;20147;-78
2023/12/18 08:37:33;;;;;;;31.15;19.60;;;;;;;2.95;100.00;102915.88;10501679;28;20048;-76
2023/12/18 08:42:33;;;;;;;29.05;20.70;;;;;;;2.97;100.00;102905.69;10487433;28;20119;-77
2023/12/18 08:47:35;;;;;;;34.50;20.63;;;;;;;2.99;100.00;102909.38;10481088;28;20098;-78
2023/12/18 08:52:35;;;;;;;28.17;20.15;;;;;;;2.91;100.00;102887.84;10487858;28;20909;-79
2023/12/18 08:57:36;;;;;;;27.00;18.30;;;;;;;2.89;100.00;102885.06;10483110;28;20040;-80
2023/12/18 09:02:37;;;;;;;29.45;17.55;;;;;;;2.93;100.00;102878.59;10501812;28;20607;-80
2023/12/18 09:07:37;;;;;;;26.90;20.50;;;;;;;3.00;100.00;102875.91;10485062;28;20077;-80
2023/12/18 09:12:38;;;;;;;27.60;17.77;;;;;;;3.01;100.00;102861.31;10455283;28;20128;-81
2023/12/18 09:17:38;;;;;;;22.33;16.50;;;;;;;3.10;100.00;102846.78;10441395;28;20470;-82
2023/12/18 09:22:39;;;;;;;24.92;18.35;;;;;;;3.13;100.00;102851.41;10476106;28;20033;-81
2023/12/18 09:27:39;;;;;;;22.67;14.82;;;;;;;3.16;100.00;102852.63;10456514;28;20132;-81
2023/12/18 09:32:40;;;;;;;27.48;16.17;;;;;;;3.20;100.00;102854.81;10483648;28;20500;-81
2023/12/18 09:37:40;;;;;;;27.48;16.88;;;;;;;3.26;100.00;102854.59;10448094;28;20040;-83
2023/12/18 09:42:41;;;;;;;25.58;15.48;;;;;;;3.28;100.00;102860.84;10471356;28;20033;-79
2023/12/18 09:47:41;;;;;;;29.50;16.58;;;;;;;3.29;100.00;102849.75;10473821;28;20233;-81
2023/12/18 09:52:46;;;;;;;22.88;16.13;;;;;;;3.29;100.00;102854.91;10499436;28;20170;-80
2023/12/18 09:57:46;;;;;;;29.00;16.13;;;;;;;3.29;100.00;102859.16;10439987;28;20041;-80
2023/12/18 10:02:47;;;;;;;24.95;16.45;;;;;;;3.26;100.00;102864.94;10426482;28;20112;-82
2023/12/18 10:07:48;;;;;;;33.63;19.00;;;;;;;3.26;100.00;102870.09;10426395;28;20037;-83
2023/12/18 10:12:49;;;;;;;23.17;13.47;;;;;;;3.24;100.00;102856.09;10440825;28;20037;-83
2023/12/18 10:17:49;;;;;;;19.98;15.23;;;;;;;3.30;100.00;102863.59;10447355;28;20116;-83
2023/12/18 10:22:50;;;;;;;23.95;16.50;;;;;;;3.30;100.00;102851.56;10486326;28;20039;-82
2023/12/18 10:27:54;;;;;;;24.63;15.98;;;;;;;3.31;100.00;102856.00;10484804;28;20056;-82
2023/12/18 10:32:56;;;;;;;31.85;16.98;;;;;;;3.34;100.00;102850.22;10485441;28;20045;-83
2023/12/18 10:37:56;;;;;;;25.73;16.27;;;;;;;3.33;100.00;102853.56;10467383;28;20470;-83
2023/12/18 10:43:03;;;;;;;27.05;15.85;;;;;;;3.38;100.00;102844.63;10466929;28;20047;-82
2023/12/18 10:48:04;;;;;;;33.65;15.93;;;;;;;3.40;100.00;102848.31;10441529;28;20506;-83
2023/12/18 10:53:04;;;;;;;15.65;11.50;;;;;;;3.44;100.00;102849.56;10442737;28;20044;-82
2023/12/18 10:58:05;;;;;;;25.42;16.05;;;;;;;3.45;100.00;102836.78;10421498;28;20090;-82
2023/12/18 11:03:05;;;;;;;31.08;15.52;;;;;;;3.46;100.00;102833.44;10481740;28;20551;-82
2023/12/18 11:08:06;;;;;;;26.75;16.05;;;;;;;3.50;100.00;102822.66;10482175;28;20381;-82
2023/12/18 11:13:23;;;;;;;21.30;14.85;;;;;;;3.42;100.00;102807.97;10483041;28;20076;-82
2023/12/18 11:18:55;;;;;;;24.92;15.40;;;;;;;3.45;100.00;102805.72;10482081;28;20155;-82
2023/12/18 11:23:58;;;;;;;19.50;13.03;;;;;;;3.53;100.00;102794.50;10482663;28;20040;-82
2023/12/18 11:29:20;;;;;;;18.45;11.73;;;;;;;3.54;100.00;102792.84;10463477;28;20029;-81
2023/12/18 11:34:21;;;;;;;23.10;13.73;;;;;;;3.52;100.00;102800.44;10472210;28;20155;-82
2023/12/18 11:39:21;;;;;;;22.35;15.00;;;;;;;3.52;100.00;102803.03;10452125;28;20043;-83
2023/12/18 11:44:22;;;;;;;33.25;18.63;;;;;;;3.57;100.00;102795.75;10460494;28;20083;-81
2023/12/18 11:49:22;;;;;;;20.63;14.75;;;;;;;3.65;100.00;102802.69;10479392;28;20552;-82
2023/12/18 11:54:23;;;;;;;14.38;12.63;;;;;;;3.70;100.00;102789.31;10455349;28;20144;-82
2023/12/18 11:59:24;;;;;;;21.35;13.95;;;;;;;3.67;100.00;102782.09;10415593;28;20059;-80
2023/12/18 12:04:25;;;;;;;36.47;18.55;;;;;;;3.67;100.00;102775.28;10455915;28;20388;-80
2023/12/18 12:09:26;;;;;;;20.35;13.35;;;;;;;3.66;100.00;102769.91;10422620;28;20167;-80
2023/12/18 12:14:27;;;;;;;24.98;14.15;;;;;;;3.69;100.00;102769.34;10468430;28;20036;-79
2023/12/18 12:19:34;;;;;;;20.50;15.50;;;;;;;3.72;100.00;102767.97;10454816;28;20045;-80
2023/12/18 12:24:37;;;;;;;19.75;14.23;;;;;;;3.66;100.00;102756.97;10499425;28;20613;-80
2023/12/18 12:29:38;;;;;;;18.00;12.10;;;;;;;3.68;100.00;102758.03;10443827;28;20052;-80
2023/12/18 12:34:38;;;;;;;16.92;13.13;;;;;;;3.59;100.00;102744.13;10415368;28;20512;-79
2023/12/18 12:39:56;;;;;;;19.85;13.40;;;;;;;3.56;100.00;102762.84;10451862;28;20127;-78
2023/12/18 12:44:56;;;;;;;22.95;12.93;;;;;;;3.53;100.00;102741.81;10480266;28;20029;-81
2023/12/18 12:50:01;;;;;;;22.20;12.55;;;;;;;3.53;100.00;102731.47;10467904;28;20048;-81
2023/12/18 12:55:02;;;;;;;19.08;10.80;;;;;;;3.53;100.00;102745.31;10495933;28;20041;-83
2023/12/18 13:00:03;;;;;;;13.90;11.43;;;;;;;3.51;100.00;102733.88;10495148;28;20404;-82
2023/12/18 13:05:03;;;;;;;18.48;10.43;;;;;;;3.53;100.00;102744.41;10494846;28;20052;-82
2023/12/18 13:10:05;;;;;;;17.27;12.07;;;;;;;3.49;100.00;102732.78;10499628;28;20151;-80
2023/12/18 13:15:06;;;;;;;20.90;12.25;;;;;;;3.48;100.00;102725.78;10509969;28;20568;-79
2023/12/18 13:20:07;;;;;;;23.77;13.70;;;;;;;3.57;100.00;102724.91;10512258;28;20032;-80
2023/12/18 13:25:07;;;;;;;17.87;9.93;;;;;;;3.64;100.00;102722.22;10489738;28;20061;-79
2023/12/18 13:30:08;;;;;;;20.58;11.23;;;;;;;3.58;100.00;102706.03;10468507;28;20044;-80
2023/12/18 13:35:09;;;;;;;15.32;11.15;;;;;;;3.57;100.00;102686.06;10487753;28;20037;-80
2023/12/18 13:40:12;;;;;;;18.00;11.75;;;;;;;3.49;100.00;102670.66;10486331;28;20121;-80
2023/12/18 13:45:13;;;;;;;20.10;12.27;;;;;;;3.57;100.00;102679.25;10469138;28;20492;-80
2023/12/18 13:50:14;;;;;;;17.58;10.45;;;;;;;3.59;100.00;102687.16;10486618;28;20039;-81
2023/12/18 13:55:14;;;;;;;14.52;10.52;;;;;;;3.52;100.00;102680.44;10487985;28;20040;-81
2023/12/18 14:00:15;;;;;;;20.25;12.68;;;;;;;3.56;100.00;102671.28;10488294;28;20044;-82
2023/12/18 14:05:16;;;;;;;16.03;11.13;;;;;;;3.54;100.00;102663.38;10487331;28;20526;-79
2023/12/18 14:10:17;;;;;;;19.38;11.82;;;;;;;3.51;100.00;102651.03;10446946;28;20439;-80
2023/12/18 14:15:17;;;;;;;19.05;13.45;;;;;;;3.53;100.00;102635.66;10437235;28;20083;-81
2023/12/18 14:20:18;;;;;;;30.40;14.15;;;;;;;3.58;100.00;102636.13;10440164;28;20119;-82
2023/12/18 14:25:19;;;;;;;16.00;10.38;;;;;;;3.56;100.00;102650.59;10440110;28;20120;-81
2023/12/18 14:30:19;;;;;;;19.08;11.90;;;;;;;3.44;100.00;102643.38;10442228;28;20499;-81
2023/12/18 14:35:20;;;;;;;17.70;11.65;;;;;;;3.34;100.00;102641.50;10428667;28;20056;-80
2023/12/18 14:40:20;;;;;;;19.73;11.43;;;;;;;3.30;100.00;102628.06;10440243;28;20500;-80
2023/12/18 14:45:21;;;;;;;17.50;10.20;;;;;;;3.25;100.00;102643.13;10437851;28;20052;-81
2023/12/18 14:50:21;;;;;;;21.00;11.82;;;;;;;3.25;100.00;102637.94;10441466;28;20045;-79
2023/12/18 14:55:23;;;;;;;16.77;12.90;;;;;;;3.17;100.00;102626.75;10482995;28;20043;-79
2023/12/18 15:00:23;;;;;;;20.47;13.03;;;;;;;3.14;100.00;102652.31;10481195;28;20101;-79
2023/12/18 15:05:23;;;;;;;22.67;11.90;;;;;;;3.13;100.00;102668.59;10501287;28;20817;-79
2023/12/18 15:10:24;;;;;;;12.98;9.18;;;;;;;3.08;100.00;102668.13;10495397;28;20127;-78
2023/12/18 15:15:24;;;;;;;19.00;7.28;;;;;;;3.04;100.00;102668.53;10488780;28;20132;-79
2023/12/18 15:20:25;;;;;;;17.05;10.55;;;;;;;3.03;100.00;102673.53;10491973;28;20069;-79
2023/12/18 15:25:25;;;;;;;18.73;12.13;;;;;;;2.94;100.00;102652.78;10493806;28;20118;-80
2023/12/18 15:30:26;;;;;;;15.10;10.57;;;;;;;2.91;100.00;102658.53;10492255;28;20123;-81
2023/12/18 15:35:26;;;;;;;20.25;16.27;;;;;;;2.87;100.00;102647.72;10486530;28;20105;-81
2023/12/18 15:40:27;;;;;;;22.20;11.27;;;;;;;2.85;100.00;102644.94;10476308;28;20127;-79
2023/12/18 15:45:27;;;;;;;18.75;11.63;;;;;;;2.84;100.00;102630.19;10508104;28;20130;-79
2023/12/18 15:50:28;;;;;;;19.23;10.68;;;;;;;2.88;100.00;102624.56;10493875;28;20791;-78
2023/12/18 15:55:29;;;;;;;19.75;15.38;;;;;;;2.85;100.00;102642.34;10496774;28;20123;-81
2023/12/18 16:00:29;;;;;;;14.88;11.60;;;;;;;2.80;100.00;102643.53;10503041;28;20131;-81
2023/12/18 16:05:33;;;;;;;17.10;9.77;;;;;;;2.78;100.00;102643.38;10494763;28;20446;-81
2023/12/18 16:10:37;;;;;;;25.45;15.52;;;;;;;2.81;100.00;102644.47;10501816;28;20086;-81
2023/12/18 16:15:38;;;;;;;23.23;14.45;;;;;;;2.75;100.00;102614.59;10493559;28;20043;-81
2023/12/18 16:20:38;;;;;;;26.17;15.25;;;;;;;2.71;100.00;102639.94;10491968;28;20043;-80
2023/12/18 16:25:39;;;;;;;24.48;14.57;;;;;;;2.67;100.00;102614.53;10471292;28;20076;-83
2023/12/18 16:30:39;;;;;;;20.50;12.30;;;;;;;2.62;100.00;102599.44;10486335;28;20407;-83
2023/12/18 16:35:40;;;;;;;24.58;13.38;;;;;;;2.59;100.00;102591.34;10510632;28;20115;-82
2023/12/18 16:40:40;;;;;;;24.13;14.02;;;;;;;2.55;100.00;102622.78;10491003;28;20040;-80
2023/12/18 16:45:41;;;;;;;25.85;14.27;;;;;;;2.55;100.00;102615.03;10498264;28;20453;-81
2023/12/18 16:50:41;;;;;;;27.77;13.52;;;;;;;2.47;100.00;102606.47;10509133;28;20043;-84
2023/12/18 16:55:42;;;;;;;24.58;13.32;;;;;;;2.49;100.00;102594.63;10507633;28;20601;-82
2023/12/18 17:00:44;;;;;;;23.00;13.35;;;;;;;2.42;100.00;102581.78;10489719;28;20044;-82
2023/12/18 17:05:44;;;;;;;;;;;;;;;2.37;100.00;102561.34;10519476;28;20037;-79
2023/12/18 17:10:45;;;;;;;20.85;12.02;;;;;;;2.31;100.00;102566.78;10502461;28;19926;-82
2023/12/18 17:15:45;;;;;;;25.08;13.45;;;;;;;2.26;100.00;102534.38;10490986;28;20385;-82
2023/12/18 17:20:46;;;;;;;22.65;13.52;;;;;;;2.27;100.00;102569.78;10506770;28;20135;-81
2023/12/18 17:25:46;;;;;;;28.58;13.65;;;;;;;2.25;100.00;102582.53;10478302;28;20127;-82
2023/12/18 17:30:47;;;;;;;23.27;14.30;;;;;;;2.24;100.00;102572.94;10501847;28;20089;-81
2023/12/18 17:35:47;;;;;;;22.33;13.63;;;;;;;2.20;100.00;102555.28;10498982;28;20097;-80
2023/12/18 17:40:49;;;;;;;20.60;10.80;;;;;;;2.17;100.00;102557.53;10507083;28;20127;-83
2023/12/18 17:45:50;;;;;;;16.77;12.30;;;;;;;2.17;100.00;102571.38;10486927;28;20553;-79
2023/12/18 17:50:50;;;;;;;23.65;13.57;;;;;;;2.16;100.00;102576.34;10489074;28;20032;-81
2023/12/18 17:55:51;;;;;;;16.83;10.90;;;;;;;2.14;100.00;102573.63;10496275;28;20151;-79
2023/12/18 18:00:52;;;;;;;21.63;10.90;;;;;;;2.15;100.00;102584.84;10444516;28;20127;-79
2023/12/18 18:05:52;;;;;;;25.15;15.05;;;;;;;2.14;100.00;102585.59;10445934;28;20075;-79
2023/12/18 18:10:53;;;;;;;21.52;16.05;;;;;;;2.10;100.00;102584.38;10440525;28;20557;-79
2023/12/18 18:15:54;;;;;;;23.25;14.07;;;;;;;2.07;100.00;102550.47;10452374;28;20453;-79
2023/12/18 18:20:55;;;;;;;22.15;13.15;;;;;;;2.09;100.00;102523.13;10471970;28;20040;-79
2023/12/18 18:25:55;;;;;;;18.80;9.68;;;;;;;2.08;100.00;102512.63;10472693;28;20564;-81
2023/12/18 18:30:56;;;;;;;20.67;12.80;;;;;;;2.08;100.00;102502.28;10489069;28;20115;-82
2023/12/18 18:35:57;;;;;;;27.73;15.80;;;;;;;2.04;100.00;102495.88;10484203;28;20036;-81
2023/12/18 18:40:57;;;;;;;18.70;11.32;;;;;;;2.03;100.00;102507.88;10485262;28;20907;-80
2023/12/18 18:45:58;;;;;;;28.25;13.02;;;;;;;2.08;100.00;102503.22;10484384;28;20093;-81
2023/12/18 18:50:58;;;;;;;18.40;10.30;;;;;;;2.04;100.00;102499.38;10471278;28;20055;-79
2023/12/18 18:55:59;;;;;;;17.13;9.40;;;;;;;2.11;100.00;102500.97;10442134;28;20128;-79
2023/12/18 19:00:59;;;;;;;18.05;12.15;;;;;;;2.06;100.00;102504.72;10442987;28;20124;-80
2023/12/18 19:06:00;;;;;;;19.10;10.30;;;;;;;2.09;100.00;102486.03;10438065;28;20511;-80
2023/12/18 19:11:03;;;;;;;18.35;11.82;;;;;;;2.09;100.00;102480.88;10438955;28;20064;-79
2023/12/18 19:16:04;;;;;;;21.33;13.23;;;;;;;2.11;100.00;102490.63;10442695;28;20408;-81
2023/12/18 19:21:04;;;;;;;33.73;14.73;;;;;;;2.10;100.00;102478.47;10437886;28;20044;-80
2023/12/18 19:26:05;;;;;;;18.40;10.48;;;;;;;2.08;100.00;102474.81;10433599;28;20477;-81
2023/12/18 19:31:06;;;;;;;23.20;13.25;;;;;;;2.07;100.00;102474.63;10437624;28;20112;-81
2023/12/18 19:36:08;;;;;;;18.30;12.18;;;;;;;2.07;100.00;102466.88;10438148;28;20048;-82
2023/12/18 19:41:09;;;;;;;20.90;11.57;;;;;;;2.01;100.00;102455.13;10437907;28;20093;-80
2023/12/18 19:46:11;;;;;;;22.02;13.13;;;;;;;1.95;100.00;102450.97;10422928;28;20041;-80
2023/12/18 19:51:11;;;;;;;17.20;9.65;;;;;;;1.96;100.00;102440.81;10438741;28;20048;-80
2023/12/18 19:56:13;;;;;;;20.55;12.43;;;;;;;1.99;100.00;102440.22;10439818;28;20121;-81
2023/12/18 20:01:13;;;;;;;24.98;11.52;;;;;;;1.98;100.00;102448.72;10460695;28;20052;-82
2023/12/18 20:06:14;;;;;;;16.75;10.48;;;;;;;1.99;100.00;102441.13;10497422;28;20044;-82
2023/12/18 20:11:21;;;;;;;17.83;10.52;;;;;;;2.01;100.00;102451.66;10502054;28;20058;-82
2023/12/18 20:16:21;;;;;;;24.02;14.27;;;;;;;2.00;100.00;102466.22;10493980;28;20587;-81
2023/12/18 20:21:22;;;;;;;22.60;13.68;;;;;;;2.02;100.00;102444.03;10501279;28;20042;-81
2023/12/18 20:26:22;;;;;;;23.27;12.82;;;;;;;2.03;100.00;102438.13;10497308;28;20475;-81
2023/12/18 20:31:23;;;;;;;17.52;10.45;;;;;;;2.04;100.00;102445.13;10489094;28;20556;-81
2023/12/18 20:36:24;;;;;;;22.00;10.35;;;;;;;2.04;100.00;102434.78;10504245;28;20122;-81
2023/12/18 20:41:24;;;;;;;19.10;11.52;;;;;;;2.07;100.00;102447.13;10485497;28;20043;-82
2023/12/18 20:46:25;;;;;;;20.35;11.13;;;;;;;2.07;100.00;102453.94;10495054;28;20186;-81
2023/12/18 20:51:25;;;;;;;21.92;12.43;;;;;;;2.08;100.00;102459.31;10492145;28;20431;-82
2023/12/18 20:56:26;;;;;;;23.35;11.25;;;;;;;2.10;100.00;102441.38;10497287;28;20056;-81
2023/12/18 21:01:26;;;;;;;20.90;12.75;;;;;;;2.13;100.00;102459.78;10464599;28;20500;-81
2023/12/18 21:06:27;;;;;;;20.15;12.30;;;;;;;2.13;100.00;102462.34;10489070;28;20040;-81
2023/12/18 21:11:27;;;;;;;24.52;11.93;;;;;;;2.19;100.00;102439.75;10481686;28;20097;-81
2023/12/18 21:16:28;;;;;;;18.65;12.15;;;;;;;2.15;100.00;102415.28;10503268;28;20527;-81
2023/12/18 21:21:28;;;;;;;25.10;11.45;;;;;;;2.17;100.00;102399.94;10500948;28;20131;-80
2023/12/18 21:26:29;;;;;;;26.88;14.13;;;;;;;2.21;100.00;102394.34;10436734;28;20136;-81
2023/12/18 21:31:30;;;;;;;22.95;12.57;;;;;;;2.24;100.00;102379.16;10454679;28;20069;-81
2023/12/18 21:36:30;;;;;;;22.30;11.93;;;;;;;2.25;100.00;102374.94;10462425;28;20037;-82
2023/12/18 21:41:31;;;;;;;20.95;12.77;;;;;;;2.28;100.00;102370.97;10489456;28;20134;-80
2023/12/18 21:46:31;;;;;;;23.05;11.98;;;;;;;2.30;100.00;102364.31;10511090;28;20040;-80
2023/12/18 21:51:32;;;;;;;22.38;14.02;;;;;;;2.33;100.00;102343.97;10497365;28;20067;-80
2023/12/18 21:56:32;;;;;;;21.05;12.23;;;;;;;2.37;100.00;102354.63;10503933;28;20477;-80
2023/12/18 22:01:33;;;;;;;21.42;12.70;;;;;;;2.35;100.00;102350.19;10499835;28;20222;-81
2023/12/18 22:06:33;;;;;;;22.60;12.98;;;;;;;2.33;100.00;102337.91;10498658;28;20028;-80
2023/12/18 22:11:34;;;;;;;31.77;14.57;;;;;;;2.36;100.00;102322.72;10479427;28;20036;-81
2023/12/18 22:16:34;;;;;;;27.83;13.48;;;;;;;2.37;100.00;102324.53;10506675;27;20391;-81
2023/12/18 22:21:35;;;;;;;22.50;12.50;;;;;;;2.39;100.00;102324.69;10502623;28;20071;-81
2023/12/18 22:26:37;;;;;;;21.95;12.32;;;;;;;2.43;100.00;102338.09;10482513;28;20040;-81
2023/12/18 22:31:37;;;;;;;32.10;16.10;;;;;;;2.41;100.00;102362.88;10461240;28;20036;-81
2023/12/18 22:36:38;;;;;;;23.02;14.07;;;;;;;2.43;100.00;102374.28;10490440;28;20086;-82